My webcam Meer informatie My webcam


Onweer radar Meer informatie blitzortung!


Regen radar Meer informatie rain snow radar


Bezoek ook deze websites:

Template documentation
and downloads

And another site

Leuven-Template Forum

support.leuven-template



Het weer levert geen direct gevaar op.    Er zijn geen waarschuwingen afgegeven.

METAR rapporten vliegvelden

   
EHVK - Volkel Rnlafb, Netherlands
Afstand tot: ZW 18 km
Gewijzigd: 02-04-2020 17:25
Bewolking  
Bewolking  
   Wind: Westen 18.5 km/h
Wind: Westen 18.5 km/h
Temperatuur: 10°C
Voelt als: 8°C
Dauwpunt: 1°C
Vochtigheid: 54%
Barometer: 1012 hPa
Bewolking: Bewolking
Zicht: meer dan 10 km
Bewolking: Bewolking 4200 ft
EHVK 021525Z AUTO 26010KT 9999 OVC042 10/01 Q1012 BLU
EDLV - Niederrhein, Germany
Afstand tot: ZO 25 km
Gewijzigd: 02-04-2020 17:20
Grotendeels bewolkt  
Grotendeels bewolkt  
   Wind: WZW 16.7 km/h
Wind: WZW 16.7 km/h
Temperatuur: 10°C
Voelt als: 8°C
Dauwpunt: 1°C
Vochtigheid: 54%
Barometer: 1011 hPa
Bewolking: Grotendeels bewolkt
Zicht: meer dan 10 km
Bewolking: Grotendeels bewolkt 4100 ft
EDLV 021520Z 25009KT 9999 BKN041 10/01 Q1011
EHDL - Deelen Rnlafb, Netherlands
Afstand tot: N 35 km
Gewijzigd: 02-04-2020 17:25
Bewolking  
Bewolking  
   Wind: WZW 24.1 km/h
Wind: WZW 24.1 km/h
Temperatuur: 10°C
Voelt als: 7°C
Dauwpunt: 2°C
Vochtigheid: 58%
Barometer: 1011 hPa
Bewolking: Bewolking
Zicht: meer dan 10 km
Bewolking: Licht bewolkt 3500 ft,
Gedeeltelijk bewolkt 4000 ft,
Bewolking 4600 ft
EHDL 021525Z AUTO 25013KT 190V310 9999 FEW035 SCT040 OVC046 10/02 Q1011 BLU
EHEH - Eindhoven Rnlafb, Netherlands
Afstand tot: ZW 48 km
Gewijzigd: 02-04-2020 17:25
Bewolking  
Bewolking  
   Wind: Westen 20.4 km/h
Wind: Westen 20.4 km/h
Temperatuur: 10°C
Voelt als: 7°C
Dauwpunt: 0°C
Vochtigheid: 50%
Barometer: 1012 hPa
Bewolking: Bewolking
Zicht: meer dan 10 km
Bewolking: Bewolking 4200 ft
EHEH 021525Z AUTO 27011KT 230V330 9999 OVC042 10/00 Q1012 BLU 26010KT 9999 FEW035 BKN042 TEMPO 26010G20KT
EHGR - Gilze-Rijen Rnla, Netherlands
Afstand tot: WZW 70 km
Gewijzigd: 02-04-2020 17:25
Bewolking  
Bewolking  
   Wind: WZW 18.5 km/h
Wind: WZW 18.5 km/h
Temperatuur: 10°C
Voelt als: 8°C
Dauwpunt: 2°C
Vochtigheid: 58%
Barometer: 1012 hPa
Bewolking: Bewolking
Zicht: meer dan 10 km
Bewolking: Bewolking 3600 ft
EHGR 021525Z AUTO 25010KT 220V280 9999 OVC036 10/02 Q1012 BLU
EBBL - Kleine-Brogel(Ba, Belgium
Afstand tot: ZZW 71 km
Gewijzigd: 02-04-2020 16:55
Bewolking  
Bewolking  
   Wind: WZW 18.5 km/h
Wind: WZW 18.5 km/h
Temperatuur: 10°C
Voelt als: 8°C
Dauwpunt: 1°C
Vochtigheid: 54%
Barometer: 1013 hPa
Bewolking: Bewolking
Zicht: meer dan 10 km
Bewolking: Bewolking 4100 ft
EBBL 021455Z AUTO 25010KT 9999 OVC041/// 10/01 Q1013 BLU

Script ontwikkeld door  Saratoga-weather.org Aangepast voor de template door  Weerstation Leuven

U vindt ons ook hier:

Het Weer Aktueel

European Weather Network

WeatherCloud

Weather Underground

Benelux Weer Netwerk

AWEKAS

Apparatuur in gebruik:

Weerstation
Davis VP2

Weerprogramma
Meteobridge

Weercomputer
My Computer

Webleverancier
My provider

Davis VP2

Meteobridge

My Computer

My provider